Chatom, Alabama
Current Conditions -  °F | °C
As of 2:56 PM on Friday 31 Oct 2014 (Local Time) from KMOB Reporting Station
Few Clouds Few Clouds  
Wind Chill: 74°   Ceiling: Unl
Heat Index: 74°   Visibility: 10mi
Dew Point: 45°   Wind: 9mph
Humidity: 35%   Direction: 300°WNW
Pressure: 29.94"   Gusts: 22mph
Location:  31.47°N, 88.25°W
Report Text: KMOB 311956Z 30008G19KT 10SM FEW070 23/07 A2994 RMK AO2 SLP136 T02330072
Loading
Personal Weather Stations






























Interactive Weather Map
Tropical Storm Tracking
New forecast layout! Learn more

10-Day Weather Forecast

Advertisements
Track Severe Weather on mobile